createdAt,value
2023-03-13T00:01:27.366Z,64.09
2023-03-13T00:03:55.682Z,64.52
2023-03-13T00:06:37.365Z,64.01
2023-03-13T00:09:06.906Z,64.31
2023-03-13T00:11:34.136Z,64.80
2023-03-13T00:14:03.209Z,64.28
2023-03-13T00:16:31.232Z,64.14
2023-03-13T00:18:59.181Z,64.39
2023-03-13T00:21:29.086Z,64.63
2023-03-13T00:23:56.662Z,64.55
2023-03-13T00:26:25.944Z,64.51
2023-03-13T00:28:53.601Z,64.47
2023-03-13T00:31:27.119Z,64.15
2023-03-13T00:33:57.906Z,64.34
2023-03-13T00:36:30.337Z,64.32
2023-03-13T00:38:58.576Z,64.21
2023-03-13T00:41:30.624Z,63.97
2023-03-13T00:43:58.602Z,64.22
2023-03-13T00:46:27.864Z,64.49
2023-03-13T00:48:55.201Z,64.05
2023-03-13T00:51:24.178Z,64.46
2023-03-13T00:53:51.374Z,64.22
2023-03-13T00:56:20.433Z,64.31
2023-03-13T00:58:49.603Z,64.42
2023-03-13T01:01:22.823Z,63.96
2023-03-13T01:03:52.852Z,64.30
2023-03-13T01:06:22.964Z,64.59
2023-03-13T01:08:50.306Z,64.19
2023-03-13T01:11:23.243Z,64.33
2023-03-13T01:13:58.104Z,64.48
2023-03-13T01:16:28.414Z,64.29
2023-03-13T01:18:59.213Z,63.77
2023-03-13T01:21:27.086Z,63.15
2023-03-13T01:23:54.598Z,64.17
2023-03-13T01:26:22.506Z,63.57
2023-03-13T01:28:49.674Z,63.43
2023-03-13T01:31:20.540Z,63.37
2023-03-13T01:33:50.565Z,63.86
2023-03-13T01:36:19.362Z,62.98
2023-03-13T01:38:54.897Z,63.35
2023-03-13T01:41:23.036Z,63.05
2023-03-13T01:43:50.774Z,62.83
2023-03-13T01:46:22.448Z,63.20
2023-03-13T01:49:21.398Z,63.35
2023-03-13T01:52:13.336Z,63.04
2023-03-13T01:54:55.533Z,63.33
2023-03-13T01:57:30.245Z,63.05
2023-03-13T02:00:10.280Z,63.08
2023-03-13T02:02:44.999Z,63.22
2023-03-13T02:05:14.113Z,63.63
2023-03-13T02:08:07.986Z,63.15
2023-03-13T02:10:42.273Z,63.50
2023-03-13T02:13:14.292Z,63.44
2023-03-13T02:15:41.548Z,63.30
2023-03-13T02:18:09.430Z,63.28
2023-03-13T02:20:39.037Z,63.26
2023-03-13T02:23:44.653Z,63.74
2023-03-13T02:26:11.860Z,63.71
2023-03-13T02:28:39.675Z,63.83
2023-03-13T02:31:11.838Z,63.64
2023-03-13T02:33:41.315Z,63.68
2023-03-13T02:36:12.627Z,63.73
2023-03-13T02:38:47.738Z,63.78
2023-03-13T02:41:16.510Z,63.53
2023-03-13T02:43:43.564Z,63.59
2023-03-13T02:46:17.682Z,63.84
2023-03-13T02:48:52.503Z,63.85
2023-03-13T02:51:34.230Z,64.04
2023-03-13T02:54:06.923Z,64.18
2023-03-13T02:56:36.844Z,64.17
2023-03-13T02:59:04.965Z,64.16
2023-03-13T03:01:33.122Z,64.21
2023-03-13T03:04:00.418Z,64.02
2023-03-13T03:06:27.560Z,63.87
2023-03-13T03:08:55.890Z,64.26
2023-03-13T03:11:23.296Z,64.26
2023-03-13T03:13:56.589Z,64.84
2023-03-13T03:16:24.129Z,64.46
2023-03-13T03:18:51.256Z,64.41
2023-03-13T03:21:18.396Z,64.41
2023-03-13T03:23:45.494Z,64.62
2023-03-13T03:26:12.607Z,64.48
2023-03-13T03:28:39.945Z,64.35
2023-03-13T03:31:13.379Z,64.67
2023-03-13T03:33:41.234Z,64.32
2023-03-13T03:36:17.759Z,64.54
2023-03-13T03:38:46.254Z,64.32
2023-03-13T03:41:16.935Z,63.97
2023-03-13T03:43:44.195Z,64.41
2023-03-13T03:46:15.208Z,64.28
2023-03-13T03:48:42.768Z,64.66
2023-03-13T03:51:12.546Z,64.19
2023-03-13T03:53:42.199Z,64.20
2023-03-13T03:56:09.230Z,64.37
2023-03-13T03:58:40.735Z,64.24
2023-03-13T04:01:16.507Z,64.22
2023-03-13T04:03:44.012Z,63.99
2023-03-13T04:06:12.648Z,64.59
2023-03-13T04:08:39.892Z,64.39
2023-03-13T04:11:09.861Z,64.30
2023-03-13T04:13:40.288Z,64.21
2023-03-13T04:16:08.826Z,64.27
2023-03-13T04:18:36.511Z,64.25
2023-03-13T04:21:06.076Z,64.26
2023-03-13T04:23:41.712Z,64.50
2023-03-13T04:26:08.759Z,63.91
2023-03-13T04:28:36.676Z,64.27
2023-03-13T04:31:06.440Z,64.19
2023-03-13T04:33:41.573Z,64.00
2023-03-13T04:36:27.501Z,63.68
2023-03-13T04:39:25.354Z,63.65
2023-03-13T04:42:13.450Z,64.15
2023-03-13T04:44:58.945Z,63.57
2023-03-13T04:47:46.731Z,63.51
2023-03-13T04:50:47.313Z,63.66
2023-03-13T04:53:28.744Z,63.93
2023-03-13T04:56:41.144Z,63.72
2023-03-13T04:59:28.272Z,63.76
2023-03-13T05:02:27.762Z,63.78
2023-03-13T05:05:13.605Z,63.33
2023-03-13T05:08:12.492Z,63.69
2023-03-13T05:11:05.873Z,63.42
2023-03-13T05:13:51.735Z,63.21
2023-03-13T05:16:57.581Z,63.57
2023-03-13T05:19:50.808Z,63.08
2023-03-13T05:22:35.986Z,63.12
2023-03-13T05:25:41.668Z,63.21
2023-03-13T05:28:34.887Z,62.96
2023-03-13T05:31:20.182Z,62.80
2023-03-13T05:34:12.715Z,62.86
2023-03-13T05:36:58.217Z,62.51
2023-03-13T05:39:51.578Z,62.82
2023-03-13T05:42:36.361Z,62.46
2023-03-13T05:45:16.552Z,62.51
2023-03-13T05:48:02.793Z,62.23
2023-03-13T05:50:32.964Z,62.01
2023-03-13T05:53:18.591Z,62.01
2023-03-13T05:55:54.700Z,61.63
2023-03-13T05:58:40.364Z,62.10
2023-03-13T06:01:27.672Z,62.11
2023-03-13T06:04:21.381Z,61.47
2023-03-13T06:06:48.576Z,61.14
2023-03-13T06:09:17.037Z,60.67
2023-03-13T06:11:44.752Z,60.73
2023-03-13T06:14:11.808Z,60.63
2023-03-13T06:16:44.064Z,61.66
2023-03-13T06:19:21.719Z,61.60
2023-03-13T06:21:48.789Z,60.33
2023-03-13T06:24:15.846Z,59.71
2023-03-13T06:26:43.369Z,58.57
2023-03-13T06:29:11.929Z,56.48
2023-03-13T06:31:39.312Z,57.80
2023-03-13T06:34:06.416Z,56.91
2023-03-13T06:36:33.577Z,55.14
2023-03-13T06:39:00.653Z,52.05
2023-03-13T06:41:28.034Z,52.65
2023-03-13T06:43:55.202Z,50.52
2023-03-13T06:46:24.370Z,47.42
2023-03-13T06:48:51.890Z,44.70
2023-03-13T06:51:21.270Z,42.67
2023-03-13T06:53:49.234Z,42.73
2023-03-13T06:56:16.273Z,40.87
2023-03-13T06:58:43.284Z,37.85
2023-03-13T07:01:13.014Z,38.69
2023-03-13T07:03:41.595Z,37.10
2023-03-13T07:06:10.038Z,33.80
2023-03-13T07:08:38.172Z,29.68
2023-03-13T07:11:08.504Z,29.27
2023-03-13T07:13:36.178Z,29.64
2023-03-13T07:16:09.184Z,29.64
2023-03-13T07:18:37.298Z,29.00
2023-03-13T07:21:05.647Z,29.81
2023-03-13T07:23:34.389Z,30.03
2023-03-13T07:26:07.517Z,29.61
2023-03-13T07:28:37.569Z,30.27
2023-03-13T07:31:10.909Z,28.24
2023-03-13T07:33:38.292Z,30.30
2023-03-13T07:36:06.243Z,30.36
2023-03-13T07:38:33.383Z,31.02
2023-03-13T07:41:00.406Z,30.75
2023-03-13T07:43:28.085Z,30.83
2023-03-13T07:45:58.143Z,31.36
2023-03-13T07:48:28.828Z,31.77
2023-03-13T07:50:56.186Z,32.39
2023-03-13T07:53:23.830Z,32.67
2023-03-13T07:55:56.322Z,32.84
2023-03-13T07:58:24.388Z,32.94
2023-03-13T08:00:53.401Z,33.71
2023-03-13T08:03:21.291Z,34.40
2023-03-13T08:05:48.389Z,34.26
2023-03-13T08:08:15.422Z,35.45
2023-03-13T08:10:42.502Z,35.81
2023-03-13T08:13:10.191Z,36.58
2023-03-13T08:15:37.288Z,35.85
2023-03-13T08:18:04.431Z,34.76
2023-03-13T08:20:31.413Z,34.06
2023-03-13T08:22:58.516Z,34.09
2023-03-13T08:25:25.611Z,33.61
2023-03-13T08:27:52.774Z,34.62
2023-03-13T08:30:20.167Z,34.00
2023-03-13T08:32:47.245Z,33.11
2023-03-13T08:35:14.457Z,33.25
2023-03-13T08:37:41.575Z,32.20
2023-03-13T08:40:12.379Z,32.57
2023-03-13T08:42:40.464Z,31.82
2023-03-13T08:45:08.361Z,31.33
2023-03-13T08:47:35.515Z,31.13
2023-03-13T08:50:03.035Z,29.84
2023-03-13T08:52:30.830Z,29.14
2023-03-13T08:54:57.858Z,28.67
2023-03-13T08:57:24.970Z,27.68
2023-03-13T08:59:51.954Z,27.36
2023-03-13T09:02:20.969Z,27.59
2023-03-13T09:04:48.820Z,27.71
2023-03-13T09:07:16.838Z,28.29
2023-03-13T09:09:44.516Z,30.27
2023-03-13T09:12:24.798Z,30.48
2023-03-13T09:14:55.237Z,31.52
2023-03-13T09:17:22.243Z,32.42
2023-03-13T09:19:59.804Z,33.29
2023-03-13T09:22:27.825Z,33.67
2023-03-13T09:24:54.853Z,34.04
2023-03-13T09:27:21.824Z,34.59
2023-03-13T09:29:48.856Z,35.71
2023-03-13T09:32:15.922Z,36.17
2023-03-13T09:34:42.887Z,36.34
2023-03-13T09:37:09.897Z,37.41
2023-03-13T09:39:37.294Z,36.99
2023-03-13T09:42:18.424Z,38.35
2023-03-13T09:45:06.497Z,41.79
2023-03-13T09:47:44.910Z,41.94
2023-03-13T09:50:23.031Z,40.97
2023-03-13T09:52:55.216Z,40.83
2023-03-13T09:55:34.977Z,41.65
2023-03-13T09:58:19.123Z,43.50
2023-03-13T10:01:01.077Z,42.84
2023-03-13T10:03:33.042Z,43.21
2023-03-13T10:06:04.414Z,42.78
2023-03-13T10:08:36.822Z,44.67
2023-03-13T10:11:38.915Z,45.40
2023-03-13T10:14:20.501Z,44.55
2023-03-13T10:17:01.328Z,44.90
2023-03-13T10:19:35.061Z,45.32
2023-03-13T10:22:04.263Z,46.17
2023-03-13T10:24:39.861Z,46.82
2023-03-13T10:27:09.933Z,45.28
2023-03-13T10:29:38.452Z,45.62
2023-03-13T10:32:07.841Z,46.27
2023-03-13T10:34:50.318Z,48.79
2023-03-13T10:37:21.634Z,46.82
2023-03-13T10:39:48.645Z,47.48
2023-03-13T10:42:24.115Z,47.60
2023-03-13T10:44:58.227Z,48.63
2023-03-13T10:47:25.315Z,49.97
2023-03-13T10:49:57.072Z,50.87
2023-03-13T10:52:45.213Z,52.59
2023-03-13T10:55:22.720Z,51.02
2023-03-13T10:58:04.423Z,50.79
2023-03-13T11:00:39.826Z,49.05
2023-03-13T11:03:19.021Z,50.14
2023-03-13T11:05:59.117Z,49.88
2023-03-13T11:08:37.239Z,50.07
2023-03-13T11:11:15.618Z,51.46
2023-03-13T11:13:44.397Z,51.37
2023-03-13T11:16:21.357Z,51.19
2023-03-13T11:18:48.342Z,51.34
2023-03-13T11:21:34.526Z,50.32
2023-03-13T11:24:13.716Z,52.18
2023-03-13T11:27:04.197Z,52.45
2023-03-13T11:29:57.836Z,52.86
2023-03-13T11:32:34.796Z,53.03
2023-03-13T11:35:07.746Z,52.04
2023-03-13T11:37:38.332Z,52.56
2023-03-13T11:40:30.238Z,52.80
2023-03-13T11:43:52.829Z,52.74
2023-03-13T11:46:47.534Z,52.96
2023-03-13T11:49:32.579Z,53.68
2023-03-13T11:52:10.100Z,52.65
2023-03-13T11:54:57.300Z,52.14
2023-03-13T11:57:38.020Z,51.77
2023-03-13T12:00:50.292Z,51.52
2023-03-13T12:03:49.646Z,51.31
2023-03-13T12:06:41.797Z,51.09
2023-03-13T12:09:16.682Z,51.53
2023-03-13T12:11:54.173Z,52.16
2023-03-13T12:14:33.911Z,51.74
2023-03-13T12:17:09.216Z,51.81
2023-03-13T12:20:17.687Z,52.05
2023-03-13T12:23:02.949Z,51.54
2023-03-13T12:25:51.247Z,51.91
2023-03-13T12:28:34.058Z,51.47
2023-03-13T12:31:30.601Z,51.21
2023-03-13T12:34:16.113Z,51.31
2023-03-13T12:36:54.400Z,50.86
2023-03-13T12:39:34.918Z,50.91
2023-03-13T12:42:16.998Z,50.84
2023-03-13T12:44:44.611Z,50.77
2023-03-13T12:47:28.006Z,50.82
2023-03-13T12:50:08.042Z,50.69
2023-03-13T12:52:58.315Z,51.24
2023-03-13T12:55:42.107Z,51.18
2023-03-13T12:58:30.857Z,51.53
2023-03-13T13:01:03.636Z,51.13
2023-03-13T13:03:37.099Z,50.92
2023-03-13T13:06:12.393Z,51.29
2023-03-13T13:08:43.787Z,50.75
2023-03-13T13:11:38.619Z,50.45
2023-03-13T13:14:17.606Z,51.01
2023-03-13T13:17:24.267Z,50.59
2023-03-13T13:19:51.696Z,50.79
2023-03-13T13:22:39.722Z,51.00
2023-03-13T13:25:31.754Z,50.92
2023-03-13T13:28:22.628Z,51.70
2023-03-13T13:30:52.450Z,51.03
2023-03-13T13:33:29.189Z,51.27
2023-03-13T13:36:21.520Z,50.83
2023-03-13T13:38:48.688Z,50.66
2023-03-13T13:41:15.750Z,50.44
2023-03-13T13:43:46.696Z,50.37
2023-03-13T13:46:33.824Z,50.72
2023-03-13T13:49:15.781Z,50.44
2023-03-13T13:52:03.557Z,50.98
2023-03-13T13:54:42.458Z,50.04
2023-03-13T13:57:15.949Z,50.37
2023-03-13T13:59:50.361Z,50.06
2023-03-13T14:02:26.647Z,50.14
2023-03-13T14:05:09.043Z,49.50
2023-03-13T14:07:45.226Z,49.86
2023-03-13T14:10:30.803Z,50.17
2023-03-13T14:13:00.128Z,49.98
2023-03-13T14:15:30.211Z,50.29
2023-03-13T14:18:10.348Z,50.17
2023-03-13T14:21:04.791Z,50.31
2023-03-13T14:23:42.195Z,50.05
2023-03-13T14:26:27.156Z,50.13
2023-03-13T14:29:01.273Z,50.77
2023-03-13T14:31:39.471Z,50.05
2023-03-13T14:34:10.092Z,50.38
2023-03-13T14:37:26.281Z,50.94
2023-03-13T14:39:53.302Z,50.93
2023-03-13T14:42:20.423Z,50.57
2023-03-13T14:44:50.439Z,51.76
2023-03-13T14:47:27.241Z,52.09
2023-03-13T14:50:05.501Z,51.21
2023-03-13T14:52:34.195Z,50.80
2023-03-13T14:55:22.799Z,50.54
2023-03-13T14:58:05.300Z,50.28
2023-03-13T15:00:32.420Z,50.24
2023-03-13T15:03:18.958Z,50.66
2023-03-13T15:06:05.816Z,51.32
2023-03-13T15:08:33.576Z,50.82
2023-03-13T15:11:01.164Z,51.19
2023-03-13T15:13:36.061Z,51.15
2023-03-13T15:16:13.831Z,51.26
2023-03-13T15:18:40.900Z,50.89
2023-03-13T15:21:10.768Z,50.86
2023-03-13T15:23:37.763Z,50.89
2023-03-13T15:26:05.813Z,51.21
2023-03-13T15:28:33.751Z,51.29
2023-03-13T15:31:00.855Z,50.55
2023-03-13T15:33:29.699Z,51.00
2023-03-13T15:35:56.950Z,51.42
2023-03-13T15:38:27.596Z,51.25
2023-03-13T15:40:54.688Z,50.88
2023-03-13T15:43:23.303Z,51.32
2023-03-13T15:45:52.497Z,51.13
2023-03-13T15:48:31.361Z,51.21
2023-03-13T15:51:04.231Z,51.12
2023-03-13T15:53:35.490Z,51.11
2023-03-13T15:56:10.615Z,51.17
2023-03-13T15:58:37.736Z,51.97
2023-03-13T16:01:04.973Z,51.35
2023-03-13T16:03:32.017Z,51.51
2023-03-13T16:05:59.086Z,51.65
2023-03-13T16:08:37.339Z,51.33
2023-03-13T16:11:04.752Z,51.84
2023-03-13T16:13:31.894Z,51.70
2023-03-13T16:15:59.145Z,51.47
2023-03-13T16:18:26.369Z,52.03
2023-03-13T16:20:54.355Z,52.10
2023-03-13T16:23:21.487Z,52.17
2023-03-13T16:25:49.563Z,51.99
2023-03-13T16:28:16.926Z,52.13
2023-03-13T16:30:44.388Z,51.78
2023-03-13T16:33:12.027Z,52.09
2023-03-13T16:35:39.710Z,51.60
2023-03-13T16:38:09.886Z,51.57
2023-03-13T16:40:36.918Z,51.68
2023-03-13T16:43:05.274Z,51.78
2023-03-13T16:45:32.312Z,51.43
2023-03-13T16:47:59.441Z,51.49
2023-03-13T16:50:35.207Z,51.93
2023-03-13T16:53:02.659Z,51.83
2023-03-13T16:55:36.257Z,51.99
2023-03-13T16:58:04.287Z,51.91
2023-03-13T17:00:32.878Z,52.04
2023-03-13T17:03:01.539Z,51.83
2023-03-13T17:05:29.267Z,52.14
2023-03-13T17:07:56.348Z,51.75
2023-03-13T17:10:27.820Z,52.51
2023-03-13T17:12:54.998Z,52.58
2023-03-13T17:15:23.414Z,53.15
2023-03-13T17:17:52.405Z,52.96
2023-03-13T17:20:22.668Z,53.43
2023-03-13T17:22:50.175Z,53.68
2023-03-13T17:25:18.072Z,53.11
2023-03-13T17:27:47.657Z,53.47
2023-03-13T17:30:27.125Z,53.71
2023-03-13T17:32:54.833Z,54.27
2023-03-13T17:35:22.673Z,54.39
2023-03-13T17:37:50.028Z,54.13
2023-03-13T17:40:28.881Z,54.19
2023-03-13T17:42:56.459Z,54.71
2023-03-13T17:45:24.253Z,54.58
2023-03-13T17:47:51.266Z,54.70
2023-03-13T17:50:20.149Z,54.77
2023-03-13T17:52:47.270Z,55.04
2023-03-13T17:55:14.523Z,54.93
2023-03-13T17:57:42.165Z,54.93
2023-03-13T18:00:21.613Z,55.21
2023-03-13T18:02:48.785Z,54.75
2023-03-13T18:05:15.978Z,54.92
2023-03-13T18:07:44.440Z,54.77
2023-03-13T18:10:16.091Z,54.56
2023-03-13T18:12:43.130Z,55.56
2023-03-13T18:15:10.576Z,54.44
2023-03-13T18:17:37.552Z,55.48
2023-03-13T18:20:08.350Z,54.76
2023-03-13T18:22:35.406Z,54.93
2023-03-13T18:25:02.400Z,54.81
2023-03-13T18:27:30.736Z,54.43
2023-03-13T18:29:57.779Z,54.80
2023-03-13T18:32:24.820Z,55.28
2023-03-13T18:34:51.887Z,54.61
2023-03-13T18:37:30.957Z,54.84
2023-03-13T18:39:58.298Z,54.28
2023-03-13T18:42:25.529Z,54.88
2023-03-13T18:44:53.699Z,55.27
2023-03-13T18:47:23.708Z,54.56
2023-03-13T18:49:51.333Z,54.91
2023-03-13T18:52:18.461Z,54.68
2023-03-13T18:54:45.574Z,54.82
2023-03-13T18:57:15.028Z,55.06
2023-03-13T18:59:43.643Z,55.03
2023-03-13T19:02:16.052Z,55.47
2023-03-13T19:04:44.076Z,55.31
2023-03-13T19:07:16.420Z,55.16
2023-03-13T19:09:45.445Z,54.72
2023-03-13T19:12:15.631Z,54.72
2023-03-13T19:14:43.082Z,55.45
2023-03-13T19:17:20.548Z,55.28
2023-03-13T19:19:47.550Z,55.41
2023-03-13T19:22:14.632Z,54.83
2023-03-13T19:24:41.875Z,54.87
2023-03-13T19:27:14.300Z,55.28
2023-03-13T19:29:41.302Z,55.54
2023-03-13T19:32:13.894Z,55.31
2023-03-13T19:34:41.225Z,55.31
2023-03-13T19:37:16.359Z,55.03
2023-03-13T19:39:43.493Z,55.53
2023-03-13T19:42:10.880Z,55.78
2023-03-13T19:44:38.409Z,55.79
2023-03-13T19:47:05.509Z,55.40
2023-03-13T19:49:33.703Z,55.35
2023-03-13T19:52:00.832Z,55.47
2023-03-13T19:54:27.851Z,55.29
2023-03-13T19:56:55.004Z,55.22
2023-03-13T19:59:23.707Z,55.50
2023-03-13T20:01:50.985Z,55.52
2023-03-13T20:04:18.093Z,54.61
2023-03-13T20:06:45.870Z,55.25
2023-03-13T20:09:16.466Z,55.26
2023-03-13T20:11:44.974Z,54.97
2023-03-13T20:14:12.324Z,55.34
2023-03-13T20:16:39.411Z,55.36
2023-03-13T20:19:06.991Z,55.73
2023-03-13T20:21:36.730Z,55.41
2023-03-13T20:24:04.326Z,55.67
2023-03-13T20:26:31.567Z,54.81
2023-03-13T20:28:58.992Z,55.26
2023-03-13T20:31:31.258Z,55.08
2023-03-13T20:34:00.101Z,55.63
2023-03-13T20:36:27.370Z,55.13
2023-03-13T20:38:54.405Z,55.09
2023-03-13T20:41:25.181Z,55.42
2023-03-13T20:43:53.025Z,56.16
2023-03-13T20:46:21.056Z,55.52
2023-03-13T20:48:48.708Z,55.86
2023-03-13T20:51:16.241Z,55.57
2023-03-13T20:53:43.929Z,55.13
2023-03-13T20:56:12.191Z,54.99
2023-03-13T20:58:39.738Z,55.31
2023-03-13T21:01:07.729Z,55.19
2023-03-13T21:03:36.145Z,55.20
2023-03-13T21:06:15.120Z,55.59
2023-03-13T21:08:43.220Z,55.09
2023-03-13T21:11:15.502Z,55.86
2023-03-13T21:13:42.848Z,55.38
2023-03-13T21:16:10.086Z,55.94
2023-03-13T21:18:37.455Z,55.38
2023-03-13T21:21:10.315Z,55.81
2023-03-13T21:23:38.317Z,56.35
2023-03-13T21:26:05.981Z,55.58
2023-03-13T21:28:33.191Z,55.52
2023-03-13T21:31:11.577Z,55.59
2023-03-13T21:33:39.626Z,55.73
2023-03-13T21:36:07.590Z,55.82
2023-03-13T21:38:34.905Z,56.19
2023-03-13T21:41:06.937Z,55.70
2023-03-13T21:43:33.985Z,55.82
2023-03-13T21:46:01.023Z,55.77
2023-03-13T21:48:28.106Z,55.86
2023-03-13T21:50:55.176Z,55.97
2023-03-13T21:53:22.235Z,56.47
2023-03-13T21:55:50.907Z,55.97
2023-03-13T21:58:18.293Z,56.60
2023-03-13T22:00:45.720Z,56.43
2023-03-13T22:03:12.867Z,56.40
2023-03-13T22:05:41.844Z,55.78
2023-03-13T22:08:08.926Z,56.27
2023-03-13T22:10:38.127Z,56.67
2023-03-13T22:13:06.866Z,56.42
2023-03-13T22:15:34.468Z,56.24
2023-03-13T22:18:01.860Z,56.21
2023-03-13T22:20:28.974Z,56.64
2023-03-13T22:22:55.965Z,56.62
2023-03-13T22:25:23.012Z,57.18
2023-03-13T22:27:50.065Z,57.42
2023-03-13T22:30:17.283Z,57.08
2023-03-13T22:32:44.378Z,57.33
2023-03-13T22:35:11.512Z,57.62
2023-03-13T22:37:38.803Z,57.68
2023-03-13T22:40:06.868Z,57.45
2023-03-13T22:42:33.907Z,58.01
2023-03-13T22:45:00.955Z,57.22
2023-03-13T22:47:28.056Z,58.80
2023-03-13T22:49:55.081Z,57.50
2023-03-13T22:52:23.501Z,57.39
2023-03-13T22:54:50.546Z,58.13
2023-03-13T22:57:17.654Z,57.76
2023-03-13T22:59:44.645Z,57.98
2023-03-13T23:02:11.649Z,57.83
2023-03-13T23:04:38.609Z,58.56
2023-03-13T23:07:05.607Z,58.33
2023-03-13T23:09:32.649Z,58.60
2023-03-13T23:11:59.679Z,58.69
2023-03-13T23:14:29.230Z,58.81
2023-03-13T23:16:57.113Z,58.61
2023-03-13T23:19:24.224Z,58.39
2023-03-13T23:21:51.241Z,59.13
2023-03-13T23:24:18.284Z,58.66
2023-03-13T23:26:45.405Z,59.85
2023-03-13T23:29:12.466Z,59.07
2023-03-13T23:31:39.527Z,58.80
2023-03-13T23:34:06.552Z,59.08
2023-03-13T23:36:33.559Z,59.42
2023-03-13T23:39:00.760Z,59.37
2023-03-13T23:41:27.768Z,59.98
2023-03-13T23:43:54.805Z,59.95
2023-03-13T23:46:26.045Z,59.91
2023-03-13T23:48:54.390Z,59.77
2023-03-13T23:51:21.784Z,59.83
2023-03-13T23:53:48.854Z,60.26
2023-03-13T23:56:16.351Z,59.86
2023-03-13T23:58:44.021Z,59.80
